Time;durP1;ratioP1;P1;durP2;ratioP2;P2;SDS_P1;SDS_P2;PMS_P1;PMS_P2;Temp;Humidity;BMP_temperature;BMP_pressure;BME280_temperature;BME280_humidity;BME280_pressure;Samples;Min_cycle;Max_cycle;Signal;HPM_P1;HPM_P2
2023/11/02 00:01:37;;;;;;;4.70;2.03;;;8.40;99.90;;;;;;5011986;28;20167;-67
2023/11/02 00:04:03;;;;;;;2.20;1.80;;;8.40;99.90;;;;;;5011516;28;20919;-67
2023/11/02 00:06:35;;;;;;;2.70;1.80;;;8.40;99.90;;;;;;4994286;28;20221;-67
2023/11/02 00:09:04;;;;;;;3.00;1.60;;;8.40;99.90;;;;;;5011862;28;20428;-67
2023/11/02 00:11:48;;;;;;;1.53;1.43;;;8.30;99.90;;;;;;5011820;28;20765;-67
2023/11/02 00:14:14;;;;;;;1.80;1.23;;;8.30;99.90;;;;;;5015360;28;20414;-67
2023/11/02 00:16:40;;;;;;;5.50;1.47;;;8.30;99.90;;;;;;5015552;28;20788;-67
2023/11/02 00:19:07;;;;;;;2.53;1.50;;;8.30;99.90;;;;;;5015340;28;20977;-67
2023/11/02 00:21:32;;;;;;;1.40;1.30;;;8.30;99.90;;;;;;5015515;28;20213;-67
2023/11/02 00:23:58;;;;;;;1.97;1.60;;;8.30;99.90;;;;;;5015183;28;20903;-67
2023/11/02 00:26:25;;;;;;;1.37;1.27;;;8.30;99.90;;;;;;5015448;28;20167;-67
2023/11/02 00:28:51;;;;;;;2.67;1.53;;;8.30;99.90;;;;;;5015178;28;20539;-67
2023/11/02 00:31:16;;;;;;;1.30;1.20;;;8.30;99.90;;;;;;5015306;28;20444;-67
2023/11/02 00:33:42;;;;;;;1.53;1.43;;;8.20;99.90;;;;;;5014986;28;20171;-67
2023/11/02 00:36:08;;;;;;;1.90;1.77;;;8.20;99.90;;;;;;5015219;28;20194;-67
2023/11/02 00:38:34;;;;;;;1.53;1.40;;;8.20;99.90;;;;;;5014923;28;20664;-67
2023/11/02 00:41:00;;;;;;;2.50;1.60;;;8.20;99.90;;;;;;5014992;28;20927;-67
2023/11/02 00:43:26;;;;;;;1.77;1.60;;;8.20;99.90;;;;;;5014819;28;20198;-67
2023/11/02 00:45:52;;;;;;;3.10;1.97;;;8.20;99.90;;;;;;5015054;28;20422;-67
2023/11/02 00:48:29;;;;;;;1.90;1.70;;;8.20;99.90;;;;;;5014890;28;20457;-67
2023/11/02 00:51:24;;;;;;;2.23;1.97;;;8.20;99.90;;;;;;5014896;28;20479;-67
2023/11/02 00:53:57;;;;;;;2.50;1.73;;;8.20;99.90;;;;;;5014673;28;20926;-67
2023/11/02 00:56:26;;;;;;;1.53;1.30;;;8.20;99.90;;;;;;5014801;28;20794;-67
2023/11/02 00:58:53;;;;;;;2.80;2.13;;;8.20;99.90;;;;;;5014745;28;20829;-67
2023/11/02 01:01:24;;;;;;;2.63;2.30;;;8.20;99.90;;;;;;5014707;28;20777;-67
2023/11/02 01:04:45;;;;;;;2.07;1.83;;;8.10;99.90;;;;;;5014355;28;20449;-67
2023/11/02 01:07:14;;;;;;;2.47;2.00;;;8.10;99.90;;;;;;4998702;28;20814;-67
2023/11/02 01:09:45;;;;;;;4.23;2.00;;;8.20;99.90;;;;;;5014428;28;20495;-67
2023/11/02 01:12:27;;;;;;;1.90;1.80;;;8.10;99.90;;;;;;5014524;28;20954;-67
2023/11/02 01:14:53;;;;;;;3.07;1.63;;;8.10;99.90;;;;;;5014250;28;20925;-67
2023/11/02 01:17:29;;;;;;;2.20;1.60;;;8.10;99.90;;;;;;5014393;28;20426;-67
2023/11/02 01:20:00;;;;;;;2.77;1.93;;;8.10;99.90;;;;;;5014322;28;20560;-67
2023/11/02 01:22:28;;;;;;;3.10;2.03;;;8.10;99.90;;;;;;5014266;28;20422;-67
2023/11/02 01:25:00;;;;;;;1.60;1.50;;;8.10;99.90;;;;;;5013282;28;20429;-67
2023/11/02 01:27:28;;;;;;;4.10;2.30;;;8.00;99.90;;;;;;5014332;28;20418;-67
2023/11/02 01:29:54;;;;;;;2.30;1.83;;;8.00;99.90;;;;;;5014026;28;20978;-67
2023/11/02 01:32:20;;;;;;;3.00;1.73;;;8.00;99.90;;;;;;5014178;28;20417;-67
2023/11/02 01:34:45;;;;;;;1.53;1.40;;;8.00;99.90;;;;;;5013819;28;20234;-67
2023/11/02 01:37:12;;;;;;;7.10;2.30;;;8.10;99.90;;;;;;5014040;28;20189;-67
2023/11/02 01:39:51;;;;;;;2.10;1.17;;;8.10;99.90;;;;;;5013889;28;20252;-67
2023/11/02 01:42:30;;;;;;;1.30;1.20;;;8.10;99.90;;;;;;5013978;28;20417;-67
2023/11/02 01:45:05;;;;;;;3.03;1.50;;;8.10;99.90;;;;;;5013741;28;20418;-67
2023/11/02 01:47:39;;;;;;;1.83;1.37;;;8.20;99.90;;;;;;5013817;28;20831;-67
2023/11/02 01:50:27;;;;;;;1.70;1.57;;;8.20;99.90;;;;;;5013749;28;20429;-67
2023/11/02 01:53:13;;;;;;;1.27;1.17;;;8.20;99.90;;;;;;5013593;28;20468;-67
2023/11/02 01:56:08;;;;;;;2.60;1.70;;;8.20;99.90;;;;;;5013704;28;20772;-67
2023/11/02 01:58:52;;;;;;;2.30;1.30;;;8.20;99.90;;;;;;5013601;28;20895;-67
2023/11/02 02:01:31;;;;;;;1.53;1.43;;;8.20;99.90;;;;;;5013671;28;20418;-67
2023/11/02 02:04:15;;;;;;;1.67;1.50;;;8.20;99.90;;;;;;5013272;28;20512;-67
2023/11/02 02:06:57;;;;;;;1.40;1.23;;;8.20;99.90;;;;;;5013567;28;21003;-67
2023/11/02 02:09:50;;;;;;;1.63;1.53;;;8.20;99.90;;;;;;5013457;28;20528;-67
2023/11/02 02:12:45;;;;;;;1.90;1.80;;;8.30;99.90;;;;;;5013393;28;20421;-67
2023/11/02 02:15:15;;;;;;;1.63;1.53;;;8.30;99.90;;;;;;5000503;28;20442;-67
2023/11/02 02:17:58;;;;;;;3.43;1.73;;;8.20;99.90;;;;;;5013218;28;20414;-67
2023/11/02 02:20:30;;;;;;;1.83;1.73;;;8.30;99.90;;;;;;5013295;28;20465;-67
2023/11/02 02:23:02;;;;;;;2.40;2.00;;;8.30;99.90;;;;;;5012935;28;20402;-67
2023/11/02 02:26:09;;;;;;;5.27;1.90;;;8.20;99.90;;;;;;5013358;28;20457;-67
2023/11/02 02:28:53;;;;;;;2.00;1.57;;;8.30;99.90;;;;;;5012684;28;20434;-67
2023/11/02 02:31:45;;;;;;;2.73;1.67;;;8.30;99.90;;;;;;5013088;28;20413;-67
2023/11/02 02:34:34;;;;;;;2.73;1.60;;;8.30;99.90;;;;;;5012784;28;20464;-67
2023/11/02 02:37:21;;;;;;;2.30;1.60;;;8.40;99.90;;;;;;5012901;28;20488;-67
2023/11/02 02:39:54;;;;;;;2.10;1.80;;;8.40;99.90;;;;;;5012826;28;20466;-67
2023/11/02 02:42:21;;;;;;;2.97;2.70;;;8.40;99.90;;;;;;5013026;28;20414;-67
2023/11/02 02:44:49;;;;;;;4.37;2.40;;;8.40;99.90;;;;;;5012496;28;20472;-67
2023/11/02 02:47:19;;;;;;;2.30;1.87;;;8.40;99.90;;;;;;5012854;28;20493;-67
2023/11/02 02:49:49;;;;;;;2.67;2.00;;;8.30;99.90;;;;;;5012654;28;20465;-67
2023/11/02 02:52:19;;;;;;;3.20;2.23;;;8.30;99.90;;;;;;5012827;28;20429;-67
2023/11/02 02:54:48;;;;;;;2.30;2.10;;;8.30;99.90;;;;;;5012785;28;21184;-67
2023/11/02 02:57:16;;;;;;;3.47;2.47;;;8.30;99.90;;;;;;5012663;28;20430;-67
2023/11/02 02:59:51;;;;;;;2.67;2.00;;;8.40;99.90;;;;;;5012432;28;20470;-67
2023/11/02 03:02:21;;;;;;;2.90;2.47;;;8.40;99.90;;;;;;5012520;28;20784;-67
2023/11/02 03:04:49;;;;;;;5.13;2.40;;;8.50;99.90;;;;;;5012218;28;20837;-67
2023/11/02 03:07:16;;;;;;;2.67;1.90;;;8.50;99.90;;;;;;5012478;28;20843;-67
2023/11/02 03:09:45;;;;;;;2.00;1.83;;;8.50;99.90;;;;;;5012411;28;20449;-67
2023/11/02 03:12:12;;;;;;;3.53;2.53;;;8.50;99.90;;;;;;5012400;28;20417;-67
2023/11/02 03:14:42;;;;;;;2.70;2.50;;;8.50;99.90;;;;;;5012016;28;20421;-67
2023/11/02 03:17:49;;;;;;;3.40;2.30;;;8.60;99.90;;;;;;5012411;28;20425;-68
2023/11/02 03:20:16;;;;;;;2.83;2.20;;;8.60;99.90;;;;;;5012386;28;20483;-67
2023/11/02 03:22:42;;;;;;;2.80;2.40;;;8.60;99.90;;;;;;5012031;28;20785;-67
2023/11/02 03:25:26;;;;;;;3.57;3.27;;;8.70;99.90;;;;;;5012348;28;20418;-67
2023/11/02 03:27:56;;;;;;;2.40;1.90;;;8.60;99.90;;;;;;5012221;28;20166;-67
2023/11/02 03:30:37;;;;;;;7.00;3.20;;;8.70;99.90;;;;;;5012081;28;20453;-67
2023/11/02 03:33:18;;;;;;;1.97;1.83;;;8.80;99.90;;;;;;5011943;28;20421;-67
2023/11/02 03:35:57;;;;;;;2.70;2.00;;;8.80;99.90;;;;;;5012111;28;20907;-67
2023/11/02 03:38:55;;;;;;;1.97;1.77;;;8.90;99.90;;;;;;5012167;28;20441;-67
2023/11/02 03:41:54;;;;;;;1.90;1.80;;;8.90;99.90;;;;;;5012214;28;20641;-67
2023/11/02 03:44:22;;;;;;;2.40;2.20;;;8.80;99.90;;;;;;5011935;28;20568;-67
2023/11/02 03:47:19;;;;;;;1.80;1.70;;;8.70;99.90;;;;;;5012324;28;20413;-67
2023/11/02 03:49:58;;;;;;;2.00;1.60;;;8.70;99.90;;;;;;5016022;28;20588;-67
2023/11/02 03:52:37;;;;;;;3.37;2.63;;;8.70;99.90;;;;;;5015923;28;20445;-67
2023/11/02 03:55:37;;;;;;;2.60;2.40;;;8.60;99.90;;;;;;5015907;28;20472;-67
2023/11/02 03:58:18;;;;;;;3.13;2.37;;;8.60;99.90;;;;;;5015812;28;20591;-67
2023/11/02 04:01:00;;;;;;;2.90;2.70;;;8.60;99.90;;;;;;5015767;28;20437;-67
2023/11/02 04:03:30;;;;;;;4.30;3.43;;;8.70;99.90;;;;;;5015597;28;20440;-67
2023/11/02 04:05:58;;;;;;;2.90;2.60;;;8.60;99.90;;;;;;5015688;28;20516;-67
2023/11/02 04:08:28;;;;;;;2.50;2.30;;;8.60;99.90;;;;;;5015667;28;20420;-67
2023/11/02 04:11:03;;;;;;;2.50;2.20;;;8.50;99.90;;;;;;5015533;28;20437;-67
2023/11/02 04:13:45;;;;;;;3.80;2.50;;;8.50;99.90;;;;;;5015416;28;20424;-67
2023/11/02 04:16:10;;;;;;;2.50;2.00;;;8.50;99.90;;;;;;5015724;28;20808;-67
2023/11/02 04:18:38;;;;;;;2.97;2.77;;;8.40;99.90;;;;;;5015481;28;20551;-67
2023/11/02 04:21:04;;;;;;;2.77;2.40;;;8.40;99.90;;;;;;5015481;28;20649;-67
2023/11/02 04:23:30;;;;;;;2.73;2.53;;;8.40;99.90;;;;;;5015097;28;20547;-67
2023/11/02 04:25:56;;;;;;;2.73;2.13;;;8.40;99.90;;;;;;5015373;28;20508;-67
2023/11/02 04:28:22;;;;;;;2.30;2.10;;;8.50;99.90;;;;;;5015313;28;20183;-67
2023/11/02 04:30:48;;;;;;;2.13;2.00;;;8.50;99.90;;;;;;5015189;28;20445;-67
2023/11/02 04:33:14;;;;;;;2.40;2.20;;;8.60;99.90;;;;;;5014997;28;20899;-67
2023/11/02 04:35:42;;;;;;;2.43;2.23;;;8.60;99.90;;;;;;5015340;28;20423;-67
2023/11/02 04:38:09;;;;;;;4.07;2.10;;;8.60;99.90;;;;;;5015149;28;20285;-67
2023/11/02 04:40:36;;;;;;;3.07;2.00;;;8.60;99.90;;;;;;5015225;28;20437;-67
2023/11/02 04:43:02;;;;;;;4.57;2.73;;;8.60;99.90;;;;;;5014780;28;20424;-67
2023/11/02 04:45:29;;;;;;;2.70;2.27;;;8.60;99.90;;;;;;5015083;28;20418;-67
2023/11/02 04:47:55;;;;;;;2.20;2.10;;;8.60;99.90;;;;;;5015097;28;20969;-67
2023/11/02 04:50:21;;;;;;;3.10;2.10;;;8.60;99.90;;;;;;5014929;28;20444;-67
2023/11/02 04:52:50;;;;;;;3.13;2.60;;;8.60;99.90;;;;;;5014537;28;20421;-67
2023/11/02 04:55:16;;;;;;;2.53;2.33;;;8.60;99.90;;;;;;5014858;28;20242;-67
2023/11/02 04:57:42;;;;;;;3.33;3.03;;;8.60;99.90;;;;;;5014845;28;20417;-67
2023/11/02 05:00:09;;;;;;;3.00;2.80;;;8.60;99.90;;;;;;5013449;28;20461;-67
2023/11/02 05:02:34;;;;;;;2.67;2.47;;;8.60;99.90;;;;;;5014436;28;20171;-67
2023/11/02 05:05:00;;;;;;;2.50;2.30;;;8.70;99.90;;;;;;5014616;28;20833;-67
2023/11/02 05:07:26;;;;;;;3.27;2.60;;;8.70;99.90;;;;;;5014645;28;20174;-67
2023/11/02 05:09:52;;;;;;;3.03;2.20;;;8.70;99.90;;;;;;5014528;28;20460;-67
2023/11/02 05:12:17;;;;;;;6.10;2.50;;;8.70;99.90;;;;;;5014570;28;20541;-67
2023/11/02 05:14:46;;;;;;;2.80;2.10;;;8.70;99.90;;;;;;5014261;28;20179;-67
2023/11/02 05:17:11;;;;;;;2.53;2.33;;;8.70;99.90;;;;;;5014410;28;20175;-67
2023/11/02 05:19:37;;;;;;;2.53;2.30;;;8.70;99.90;;;;;;5014253;28;20480;-67
2023/11/02 05:22:04;;;;;;;2.20;2.00;;;8.70;99.90;;;;;;5014291;28;20177;-67
2023/11/02 05:24:29;;;;;;;2.50;2.03;;;8.70;99.90;;;;;;5014074;28;20417;-68
2023/11/02 05:26:55;;;;;;;2.70;2.17;;;8.70;99.90;;;;;;5014237;28;20418;-67
2023/11/02 05:29:21;;;;;;;2.70;2.03;;;8.70;99.90;;;;;;5014503;28;20206;-67
2023/11/02 05:31:47;;;;;;;1.93;1.80;;;8.70;99.90;;;;;;5014200;28;20167;-67
2023/11/02 05:34:12;;;;;;;2.57;1.40;;;8.80;99.90;;;;;;5013866;28;20429;-67
2023/11/02 05:36:38;;;;;;;2.20;2.00;;;8.80;99.90;;;;;;5013990;28;20659;-67
2023/11/02 05:39:05;;;;;;;2.07;1.90;;;8.80;99.90;;;;;;5013879;28;20217;-67
2023/11/02 05:41:31;;;;;;;2.80;1.80;;;8.90;99.90;;;;;;5013991;28;20553;-67
2023/11/02 05:43:56;;;;;;;1.67;1.57;;;8.90;99.90;;;;;;5013706;28;20421;-67
2023/11/02 05:46:22;;;;;;;2.80;1.60;;;9.00;99.90;;;;;;5013841;28;20179;-67
2023/11/02 05:48:48;;;;;;;1.90;1.80;;;9.00;99.90;;;;;;5013856;28;20171;-67
2023/11/02 05:51:14;;;;;;;1.93;1.43;;;9.10;99.90;;;;;;5013545;28;20199;-67
2023/11/02 05:53:39;;;;;;;1.97;1.87;;;9.20;99.90;;;;;;5013642;28;20245;-67
2023/11/02 05:56:05;;;;;;;2.37;2.17;;;9.20;99.90;;;;;;5013704;28;20179;-67
2023/11/02 05:58:31;;;;;;;1.80;1.53;;;9.30;99.90;;;;;;5013575;28;20672;-67
2023/11/02 06:00:56;;;;;;;2.20;2.10;;;9.30;99.90;;;;;;5013539;28;20439;-67
2023/11/02 06:03:24;;;;;;;2.80;1.90;;;9.30;99.90;;;;;;5013396;28;20206;-67
2023/11/02 06:05:50;;;;;;;3.17;2.40;;;9.40;99.90;;;;;;5013579;28;20254;-67
2023/11/02 06:08:15;;;;;;;3.23;2.07;;;9.40;99.90;;;;;;5013483;28;20449;-67
2023/11/02 06:10:41;;;;;;;2.17;1.80;;;9.40;99.90;;;;;;5013020;28;20445;-67
2023/11/02 06:13:06;;;;;;;1.50;1.40;;;9.40;99.90;;;;;;5013157;28;20229;-67
2023/11/02 06:15:32;;;;;;;3.70;1.30;;;9.20;99.90;;;;;;5013349;28;20187;-67
2023/11/02 06:17:57;;;;;;;2.80;1.87;;;9.10;99.90;;;;;;5013260;28;20547;-67
2023/11/02 06:20:23;;;;;;;3.00;1.40;;;9.00;99.90;;;;;;5013127;28;20195;-67
2023/11/02 06:22:48;;;;;;;2.87;1.70;;;9.00;99.90;;;;;;5012864;28;20229;-68
2023/11/02 06:25:15;;;;;;;3.60;1.47;;;8.90;99.90;;;;;;5013183;28;20164;-68
2023/11/02 06:27:42;;;;;;;3.27;1.60;;;8.90;99.90;;;;;;5013156;28;20167;-68
2023/11/02 06:30:09;;;;;;;3.37;1.87;;;8.90;99.90;;;;;;5012885;28;20469;-68
2023/11/02 06:32:34;;;;;;;2.83;2.23;;;8.80;99.90;;;;;;5012793;28;20425;-67
2023/11/02 06:35:00;;;;;;;3.17;2.07;;;8.80;99.90;;;;;;5012906;28;20426;-68
2023/11/02 06:37:25;;;;;;;2.37;2.17;;;8.70;99.90;;;;;;5013024;28;20181;-68
2023/11/02 06:39:51;;;;;;;3.70;2.30;;;8.80;99.90;;;;;;5012784;28;20221;-68
2023/11/02 06:42:16;;;;;;;2.17;2.07;;;8.80;99.90;;;;;;5012905;28;20299;-68
2023/11/02 06:44:45;;;;;;;3.63;2.50;;;8.80;99.90;;;;;;4996672;28;20663;-68
2023/11/02 06:47:11;;;;;;;2.60;1.70;;;8.80;99.90;;;;;;5032627;28;20175;-68
2023/11/02 06:49:37;;;;;;;3.57;2.73;;;8.80;99.90;;;;;;5032559;28;20433;-68
2023/11/02 06:52:03;;;;;;;3.10;2.53;;;8.90;99.90;;;;;;5032481;28;20455;-67
2023/11/02 06:54:28;;;;;;;2.43;2.07;;;8.90;99.90;;;;;;5032078;28;20512;-67
2023/11/02 06:56:54;;;;;;;2.10;1.93;;;9.00;99.90;;;;;;5032367;28;20848;-68
2023/11/02 06:59:20;;;;;;;2.80;2.60;;;9.10;99.90;;;;;;5032242;28;20202;-67
2023/11/02 07:01:46;;;;;;;1.87;1.77;;;9.00;99.90;;;;;;5032343;28;20166;-67
2023/11/02 07:04:12;;;;;;;5.33;3.03;;;9.00;99.90;;;;;;5031996;28;20167;-67
2023/11/02 07:06:38;;;;;;;2.60;2.40;;;8.90;99.90;;;;;;5032265;28;20417;-68
2023/11/02 07:09:04;;;;;;;2.70;1.73;;;8.90;99.90;;;;;;5032106;28;20193;-68
2023/11/02 07:11:30;;;;;;;6.43;3.37;;;8.80;99.90;;;;;;5029061;28;20179;-67
2023/11/02 07:13:56;;;;;;;3.13;2.50;;;8.70;99.90;;;;;;5013999;28;20802;-68
2023/11/02 07:16:22;;;;;;;3.60;2.40;;;8.70;99.90;;;;;;5012361;28;20545;-68
2023/11/02 07:18:47;;;;;;;3.40;1.80;;;8.70;99.90;;;;;;5012124;28;20460;-68
2023/11/02 07:21:13;;;;;;;8.80;2.43;;;8.70;99.90;;;;;;5012072;28;20545;-68
2023/11/02 07:23:39;;;;;;;5.63;2.80;;;8.70;99.90;;;;;;5009600;28;20167;-68
2023/11/02 07:26:05;;;;;;;17.13;8.20;;;8.80;99.90;;;;;;5025157;28;20253;-67
2023/11/02 07:28:30;;;;;;;4.77;3.60;;;8.80;99.90;;;;;;5017665;28;20413;-68
2023/11/02 07:30:56;;;;;;;4.70;2.40;;;8.80;99.90;;;;;;5012061;28;20472;-68
2023/11/02 07:33:21;;;;;;;3.47;2.47;;;8.70;99.90;;;;;;5011901;28;20171;-68
2023/11/02 07:35:47;;;;;;;6.93;3.20;;;8.70;99.90;;;;;;4994330;28;20229;-68
2023/11/02 07:38:12;;;;;;;4.73;2.70;;;8.70;99.90;;;;;;5012258;28;20244;-68
2023/11/02 07:40:38;;;;;;;4.90;2.70;;;8.70;99.90;;;;;;5012962;28;20241;-69
2023/11/02 07:43:03;;;;;;;4.23;2.90;;;8.70;99.90;;;;;;5012792;28;20209;-70
2023/11/02 07:45:29;;;;;;;5.57;3.20;;;8.70;99.90;;;;;;5012206;28;20644;-70
2023/11/02 07:47:54;;;;;;;4.80;2.50;;;8.80;99.90;;;;;;5012019;28;20205;-70
2023/11/02 07:50:20;;;;;;;3.40;2.10;;;8.70;99.90;;;;;;5011942;28;20282;-70
2023/11/02 07:52:45;;;;;;;3.43;2.53;;;8.70;99.90;;;;;;5011696;28;20597;-70
2023/11/02 07:55:11;;;;;;;4.33;2.30;;;8.80;99.90;;;;;;5012043;28;20637;-70
2023/11/02 07:57:36;;;;;;;3.33;3.03;;;8.80;99.90;;;;;;5012254;28;20246;-70
2023/11/02 08:00:03;;;;;;;2.70;2.50;;;8.80;99.90;;;;;;5011952;28;20210;-70
2023/11/02 08:02:28;;;;;;;6.07;2.73;;;8.80;99.90;;;;;;5011905;28;20656;-70
2023/11/02 08:04:54;;;;;;;5.03;3.40;;;8.80;99.90;;;;;;5011652;28;20463;-70
2023/11/02 08:07:19;;;;;;;4.90;3.00;;;8.90;99.90;;;;;;5011899;28;20171;-70
2023/11/02 08:09:45;;;;;;;4.67;3.10;;;8.90;99.90;;;;;;5011884;28;20237;-70
2023/11/02 08:12:10;;;;;;;6.67;5.97;;;9.00;99.90;;;;;;5011835;28;20604;-70
2023/11/02 08:14:36;;;;;;;4.10;3.70;;;9.00;99.90;;;;;;5011585;28;20174;-70
2023/11/02 08:17:03;;;;;;;4.93;4.53;;;9.00;99.90;;;;;;5011784;28;20179;-70
2023/11/02 08:19:29;;;;;;;4.50;3.77;;;8.90;99.90;;;;;;5011601;28;20997;-70
2023/11/02 08:21:55;;;;;;;5.40;3.07;;;8.90;99.90;;;;;;5011730;28;20493;-70
2023/11/02 08:24:21;;;;;;;5.57;3.10;;;8.90;99.90;;;;;;5011098;28;20171;-70
2023/11/02 08:26:46;;;;;;;3.93;3.53;;;8.90;99.90;;;;;;5011715;28;20647;-70
2023/11/02 08:29:12;;;;;;;4.60;3.23;;;8.90;99.90;;;;;;5011473;28;20465;-70
2023/11/02 08:31:37;;;;;;;3.93;3.30;;;8.90;99.90;;;;;;4994155;28;20179;-70
2023/11/02 08:34:04;;;;;;;9.03;3.27;;;8.90;99.90;;;;;;5013665;28;20205;-70
2023/11/02 08:36:34;;;;;;;6.90;3.60;;;8.90;99.90;;;;;;5015185;28;20797;-70
2023/11/02 08:38:59;;;;;;;3.73;3.43;;;8.90;99.90;;;;;;5015008;28;20191;-70
2023/11/02 08:41:29;;;;;;;6.03;4.23;;;8.90;99.90;;;;;;5015189;28;20464;-70
2023/11/02 08:43:56;;;;;;;3.30;3.00;;;8.90;99.90;;;;;;5014761;28;20198;-69
2023/11/02 08:46:22;;;;;;;8.10;3.90;;;8.90;99.90;;;;;;5015021;28;20414;-69
2023/11/02 08:48:49;;;;;;;7.97;3.43;;;8.80;99.90;;;;;;5015003;28;20516;-70
2023/11/02 08:51:17;;;;;;;4.33;3.20;;;8.90;99.90;;;;;;5014822;28;20512;-70
2023/11/02 08:53:43;;;;;;;4.60;3.63;;;8.90;99.90;;;;;;5014601;28;20426;-70
2023/11/02 08:56:09;;;;;;;4.40;3.10;;;8.90;99.90;;;;;;5014834;28;20430;-70
2023/11/02 08:58:45;;;;;;;5.73;3.37;;;8.90;99.90;;;;;;5014712;28;20453;-69
2023/11/02 09:01:16;;;;;;;2.97;2.70;;;8.90;99.90;;;;;;5014681;28;20441;-70
2023/11/02 09:03:42;;;;;;;2.97;2.77;;;9.00;99.90;;;;;;5014419;28;20417;-70
2023/11/02 09:06:08;;;;;;;3.20;2.90;;;9.00;99.90;;;;;;5014634;28;20513;-70
2023/11/02 09:08:36;;;;;;;4.20;3.57;;;9.00;99.90;;;;;;5014470;28;20210;-70
2023/11/02 09:11:02;;;;;;;3.90;3.50;;;9.10;99.90;;;;;;5014486;28;20445;-69
2023/11/02 09:13:29;;;;;;;7.00;4.10;;;9.20;99.90;;;;;;5014221;28;20548;-70
2023/11/02 09:15:54;;;;;;;3.77;3.47;;;9.30;99.90;;;;;;5014477;28;20516;-69
2023/11/02 09:18:21;;;;;;;3.80;3.50;;;9.30;99.90;;;;;;5014365;28;20536;-69
2023/11/02 09:20:47;;;;;;;6.53;4.63;;;9.30;99.90;;;;;;4996674;28;20298;-70
2023/11/02 09:23:13;;;;;;;4.10;3.20;;;9.20;99.90;;;;;;5014044;28;20418;-69
2023/11/02 09:25:38;;;;;;;5.00;2.90;;;9.30;99.90;;;;;;5013721;28;20425;-69
2023/11/02 09:28:04;;;;;;;6.60;3.67;;;9.30;99.90;;;;;;5014210;28;20584;-69
2023/11/02 09:30:30;;;;;;;5.23;4.00;;;9.30;99.90;;;;;;5013975;28;20217;-69
2023/11/02 09:32:55;;;;;;;6.03;4.00;;;9.30;99.90;;;;;;5013953;28;20532;-69
2023/11/02 09:35:21;;;;;;;6.50;4.07;;;9.40;99.90;;;;;;5014107;28;20175;-70
2023/11/02 09:37:47;;;;;;;4.00;3.63;;;9.40;99.90;;;;;;5014081;28;20257;-70
2023/11/02 09:40:12;;;;;;;4.80;3.60;;;9.40;99.90;;;;;;5013816;28;20548;-70
2023/11/02 09:42:38;;;;;;;4.53;3.57;;;9.40;99.90;;;;;;5013691;28;20167;-70
2023/11/02 09:45:05;;;;;;;6.43;4.43;;;9.40;99.90;;;;;;5013307;28;20667;-70
2023/11/02 09:47:32;;;;;;;7.50;5.63;;;9.50;99.90;;;;;;5013855;28;20175;-70
2023/11/02 09:49:58;;;;;;;4.13;3.73;;;9.50;99.90;;;;;;5013724;28;20464;-70
2023/11/02 09:52:23;;;;;;;6.33;3.20;;;9.60;99.90;;;;;;5013770;28;20418;-69
2023/11/02 09:54:49;;;;;;;3.07;2.60;;;9.60;99.90;;;;;;5013477;28;20696;-69
2023/11/02 09:57:15;;;;;;;3.70;2.10;;;9.70;99.90;;;;;;5013655;28;20174;-70
2023/11/02 09:59:44;;;;;;;3.17;2.10;;;9.70;99.90;;;;;;5013515;28;20207;-70
2023/11/02 10:02:11;;;;;;;2.17;1.97;;;9.70;99.90;;;;;;5013673;28;20224;-70
2023/11/02 10:04:37;;;;;;;2.00;1.80;;;9.80;99.90;;;;;;5013210;28;20410;-70
2023/11/02 10:07:04;;;;;;;3.77;1.90;;;9.80;99.90;;;;;;5013615;28;20424;-70
2023/11/02 10:09:29;;;;;;;2.20;1.90;;;9.90;99.90;;;;;;5013397;28;20445;-69
2023/11/02 10:11:55;;;;;;;3.07;2.30;;;9.90;99.90;;;;;;5013455;28;20491;-70
2023/11/02 10:14:20;;;;;;;9.10;2.00;;;9.90;99.90;;;;;;5013174;28;20177;-70
2023/11/02 10:16:46;;;;;;;2.57;1.70;;;10.00;99.90;;;;;;5013405;28;20171;-70
2023/11/02 10:19:11;;;;;;;3.30;2.20;;;10.00;99.90;;;;;;5013118;28;20282;-69
2023/11/02 10:21:40;;;;;;;1.93;1.33;;;10.10;99.90;;;;;;5013246;28;20159;-69
2023/11/02 10:24:06;;;;;;;2.40;1.30;;;10.10;99.90;;;;;;5012950;28;20250;-69
2023/11/02 10:26:34;;;;;;;1.60;1.50;;;10.10;99.90;;;;;;5013211;28;20506;-69
2023/11/02 10:29:02;;;;;;;1.67;1.57;;;10.10;99.90;;;;;;5012983;28;20504;-69
2023/11/02 10:31:30;;;;;;;3.77;2.00;;;10.20;99.90;;;;;;5013214;28;20835;-70
2023/11/02 10:33:58;;;;;;;2.03;1.60;;;10.20;99.90;;;;;;5012781;28;20418;-69
2023/11/02 10:36:25;;;;;;;2.10;1.83;;;10.20;99.90;;;;;;5013041;28;20414;-69
2023/11/02 10:38:51;;;;;;;1.70;1.20;;;10.20;99.90;;;;;;5012908;28;20488;-70
2023/11/02 10:41:18;;;;;;;1.40;1.30;;;10.30;99.90;;;;;;5013032;28;20414;-69
2023/11/02 10:43:47;;;;;;;1.03;1.00;;;10.30;99.90;;;;;;5012667;28;20414;-70
2023/11/02 10:46:15;;;;;;;1.77;1.23;;;10.40;99.90;;;;;;5012895;28;20414;-70
2023/11/02 10:48:41;;;;;;;2.00;1.07;;;10.40;99.90;;;;;;5011532;28;20420;-70
2023/11/02 10:51:18;;;;;;;2.53;1.20;;;10.40;99.90;;;;;;5024038;28;20458;-70
2023/11/02 10:53:50;;;;;;;2.63;1.00;;;10.40;99.90;;;;;;5010521;28;20436;-68
2023/11/02 10:56:20;;;;;;;4.67;1.43;;;10.40;99.90;;;;;;5011773;28;20446;-69
2023/11/02 10:58:51;;;;;;;2.57;1.03;;;10.40;99.90;;;;;;5012350;28;20968;-69
2023/11/02 11:01:19;;;;;;;5.57;2.47;;;10.40;99.90;;;;;;5012740;28;20417;-69
2023/11/02 11:03:47;;;;;;;2.13;1.10;;;10.40;99.90;;;;;;5011993;28;20496;-69
2023/11/02 11:06:12;;;;;;;1.07;0.97;;;10.40;99.90;;;;;;5012629;28;20960;-69
2023/11/02 11:08:39;;;;;;;1.53;0.87;;;10.40;99.90;;;;;;4994872;28;20457;-69
2023/11/02 11:11:06;;;;;;;1.27;0.80;;;10.40;99.90;;;;;;5012428;28;20627;-69
2023/11/02 11:13:32;;;;;;;1.17;1.03;;;10.30;99.90;;;;;;5012227;28;20460;-69
2023/11/02 11:15:59;;;;;;;1.40;0.93;;;10.30;99.90;;;;;;5012365;28;20774;-69
2023/11/02 11:18:26;;;;;;;1.27;0.90;;;10.30;99.90;;;;;;5012207;28;20519;-69
2023/11/02 11:20:51;;;;;;;0.70;0.70;;;10.30;99.90;;;;;;5018767;28;20437;-70
2023/11/02 11:23:17;;;;;;;0.93;0.83;;;10.30;99.90;;;;;;5011870;28;20417;-69
2023/11/02 11:26:02;;;;;;;3.70;1.23;;;10.30;99.90;;;;;;5012269;28;20166;-69
2023/11/02 11:28:34;;;;;;;1.27;1.10;;;10.30;99.90;;;;;;5011212;28;20426;-69
2023/11/02 11:31:00;;;;;;;0.97;0.80;;;10.20;99.90;;;;;;5012656;28;20545;-70
2023/11/02 11:33:47;;;;;;;2.60;1.83;;;10.20;99.90;;;;;;5011984;28;20828;-70
2023/11/02 11:36:21;;;;;;;3.90;1.10;;;10.20;99.90;;;;;;5012045;28;20426;-70
2023/11/02 11:38:47;;;;;;;1.97;1.10;;;10.10;99.90;;;;;;5012144;28;20517;-70
2023/11/02 11:41:44;;;;;;;1.30;1.20;;;10.10;99.90;;;;;;5012107;28;20530;-70
2023/11/02 11:44:20;;;;;;;1.63;0.80;;;10.10;99.90;;;;;;5011864;28;20445;-70
2023/11/02 11:46:50;;;;;;;1.37;0.93;;;10.10;99.90;;;;;;5012142;28;20414;-69
2023/11/02 11:49:38;;;;;;;1.53;0.93;;;10.10;99.90;;;;;;5012023;28;20440;-70
2023/11/02 11:52:05;;;;;;;0.93;0.83;;;10.10;99.90;;;;;;4994535;28;20413;-69
2023/11/02 11:54:31;;;;;;;2.00;0.97;;;10.10;99.90;;;;;;5011772;28;20911;-70
2023/11/02 11:56:57;;;;;;;1.73;1.10;;;10.10;99.90;;;;;;5012194;28;20425;-70
2023/11/02 11:59:51;;;;;;;2.10;1.20;;;10.10;99.90;;;;;;5011913;28;20261;-69
2023/11/02 12:02:36;;;;;;;3.70;0.87;;;10.00;99.90;;;;;;5011982;28;20469;-71
2023/11/02 12:05:05;;;;;;;2.30;1.20;;;10.00;99.90;;;;;;5012003;28;20420;-70
2023/11/02 12:07:33;;;;;;;1.10;1.00;;;10.00;99.90;;;;;;5012001;28;20931;-70
2023/11/02 12:10:03;;;;;;;1.70;1.03;;;10.00;99.90;;;;;;5015694;28;20861;-70
2023/11/02 12:12:29;;;;;;;1.53;0.93;;;10.00;99.90;;;;;;5015661;28;20930;-70
2023/11/02 12:14:55;;;;;;;0.80;0.80;;;9.90;99.90;;;;;;5015473;28;20421;-70
2023/11/02 12:17:21;;;;;;;1.40;0.90;;;9.90;99.90;;;;;;5015503;28;20479;-70
2023/11/02 12:19:46;;;;;;;1.37;1.23;;;9.90;99.90;;;;;;5015439;28;20203;-70
2023/11/02 12:22:12;;;;;;;0.73;0.73;;;9.90;99.90;;;;;;5015593;28;20206;-70
2023/11/02 12:24:38;;;;;;;1.90;1.20;;;9.90;99.90;;;;;;5015196;28;20174;-70
2023/11/02 12:27:12;;;;;;;2.30;0.90;;;9.90;99.90;;;;;;5015399;28;20994;-70
2023/11/02 12:29:37;;;;;;;1.00;0.70;;;9.80;99.90;;;;;;5015229;28;20465;-70
2023/11/02 12:32:03;;;;;;;1.27;1.00;;;9.90;99.90;;;;;;5015255;28;20413;-70
2023/11/02 12:34:29;;;;;;;2.70;1.90;;;9.80;99.90;;;;;;5015000;28;20173;-70
2023/11/02 12:36:56;;;;;;;1.23;0.80;;;9.80;99.90;;;;;;5015300;28;20441;-70
2023/11/02 12:39:21;;;;;;;3.60;1.03;;;9.80;99.90;;;;;;5015041;28;20206;-70
2023/11/02 12:41:51;;;;;;;0.90;0.90;;;9.80;99.90;;;;;;5015207;28;20422;-70
2023/11/02 12:44:22;;;;;;;1.73;1.07;;;9.80;99.90;;;;;;5014647;28;20166;-70
2023/11/02 12:46:52;;;;;;;0.63;0.63;;;9.90;99.90;;;;;;5015050;28;20786;-70
2023/11/02 12:49:26;;;;;;;1.43;0.80;;;9.90;99.90;;;;;;5011167;28;20523;-71
2023/11/02 12:52:01;;;;;;;2.13;1.10;;;9.90;99.90;;;;;;5029746;28;20424;-70
2023/11/02 12:54:28;;;;;;;1.60;1.50;;;9.90;99.90;;;;;;5034320;28;20871;-70
2023/11/02 12:56:58;;;;;;;1.07;0.83;;;9.80;99.90;;;;;;5034435;28;20428;-68
2023/11/02 12:59:23;;;;;;;2.03;1.20;;;9.80;99.90;;;;;;5033883;28;20473;-68
2023/11/02 13:01:53;;;;;;;1.33;1.00;;;9.80;99.90;;;;;;5034382;28;20440;-68
2023/11/02 13:04:28;;;;;;;0.80;0.80;;;9.80;99.90;;;;;;5033968;28;20515;-68
2023/11/02 13:06:55;;;;;;;1.60;0.80;;;9.80;99.90;;;;;;5034413;28;20420;-68
2023/11/02 13:09:22;;;;;;;2.03;0.80;;;9.80;99.90;;;;;;5015418;28;21045;-69